Time;durP1;ratioP1;P1;durP2;ratioP2;P2;SDS_P1;SDS_P2;PMS_P1;PMS_P2;Temp;Humidity;BMP_temperature;BMP_pressure;BME280_temperature;BME280_humidity;BME280_pressure;Samples;Min_cycle;Max_cycle;Signal;HPM_P1;HPM_P2
2023/05/22 00:02:01;;;;;;;9.93;5.40;;;;;;;;;;6086577;23;20128;-54
2023/05/22 00:04:35;;;;;;;9.57;5.97;;;;;;;;;;6086984;23;20052;-54
2023/05/22 00:07:02;;;;;;;9.95;5.65;;;;;;;;;;6085900;23;20027;-51
2023/05/22 00:09:29;;;;;;;;;;;;;;;;;;6086459;23;20029;-50
2023/05/22 00:12:03;;;;;;;11.40;5.13;;;;;;;;;;6086817;23;19976;-49
2023/05/22 00:14:31;;;;;;;8.75;5.40;;;;;;;;;;6086895;23;20023;-61
2023/05/22 00:16:59;;;;;;;6.30;5.28;;;;;;;;;;6083747;23;20088;-57
2023/05/22 00:19:33;;;;;;;10.07;5.55;;;;;;;;;;6084712;23;20097;-52
2023/05/22 00:22:01;;;;;;;9.57;5.72;;;;;;;;;;6084331;23;20032;-54
2023/05/22 00:24:28;;;;;;;10.75;5.35;;;;;;;;;;6083350;23;20431;-55
2023/05/22 00:27:02;;;;;;;9.27;5.50;;;;;;;;;;6084194;23;20030;-51
2023/05/22 00:29:29;;;;;;;11.55;5.30;;;;;;;;;;6084182;23;20022;-54
2023/05/22 00:32:04;;;;;;;9.15;5.47;;;;;;;;;;6083942;23;20026;-54
2023/05/22 00:34:32;;;;;;;6.88;5.22;;;;;;;;;;6086486;23;20113;-53
2023/05/22 00:37:06;;;;;;;7.20;5.47;;;;;;;;;;6083773;23;20026;-56
2023/05/22 00:39:33;;;;;;;7.70;5.10;;;;;;;;;;6083100;23;20031;-51
2023/05/22 00:42:00;;;;;;;9.50;5.15;;;;;;;;;;6083300;23;20034;-60
2023/05/22 00:44:41;;;;;;;9.00;5.30;;;;;;;;;;6086171;23;20070;-51
2023/05/22 00:47:08;;;;;;;6.97;5.25;;;;;;;;;;6084514;23;20715;-52
2023/05/22 00:49:43;;;;;;;9.00;5.20;;;;;;;;;;6084248;23;20027;-49
2023/05/22 00:52:10;;;;;;;;;;;;;;;;;;6085809;23;20033;-51
2023/05/22 00:54:37;;;;;;;10.05;5.28;;;;;;;;;;6084445;23;19976;-48
2023/05/22 00:57:12;;;;;;;13.70;5.72;;;;;;;;;;6085686;23;20026;-48
2023/05/22 00:59:39;;;;;;;;;;;;;;;;;;6086526;23;20022;-54
2023/05/22 01:02:15;;;;;;;9.70;6.05;;;;;;;;;;6084772;23;19917;-52
2023/05/22 01:04:47;;;;;;;7.78;5.93;;;;;;;;;;6085146;23;20568;-51
2023/05/22 01:07:20;;;;;;;;;;;;;;;;;;6086849;23;20053;-49
2023/05/22 01:09:55;;;;;;;12.13;5.40;;;;;;;;;;6085590;23;19929;-60
2023/05/22 01:12:38;;;;;;;10.02;5.30;;;;;;;;;;6085213;23;20026;-51
2023/05/22 01:15:25;;;;;;;10.07;5.88;;;;;;;;;;6085007;23;20089;-52
2023/05/22 01:17:58;;;;;;;7.20;5.70;;;;;;;;;;6084287;23;20018;-53
2023/05/22 01:20:36;;;;;;;9.45;6.05;;;;;;;;;;6085845;23;20046;-55
2023/05/22 01:23:13;;;;;;;8.63;6.18;;;;;;;;;;6083831;23;20023;-53
2023/05/22 01:25:51;;;;;;;10.57;5.95;;;;;;;;;;6087381;23;20018;-51
2023/05/22 01:28:31;;;;;;;8.55;5.88;;;;;;;;;;6085886;23;20105;-53
2023/05/22 01:31:07;;;;;;;7.82;5.57;;;;;;;;;;6085810;23;20549;-64
2023/05/22 01:33:46;;;;;;;8.48;5.78;;;;;;;;;;6083494;23;20026;-62
2023/05/22 01:36:24;;;;;;;8.52;5.82;;;;;;;;;;6087026;23;20398;-65
2023/05/22 01:38:52;;;;;;;8.35;6.25;;;;;;;;;;6086775;23;20022;-64
2023/05/22 01:41:28;;;;;;;9.73;6.00;;;;;;;;;;6085938;23;20022;-65
2023/05/22 01:44:09;;;;;;;10.82;6.03;;;;;;;;;;6085924;23;20027;-63
2023/05/22 01:46:43;;;;;;;9.93;5.97;;;;;;;;;;6114457;23;20026;-59
2023/05/22 01:49:11;;;;;;;11.90;6.25;;;;;;;;;;6113821;23;20030;-59
2023/05/22 01:51:56;;;;;;;8.40;6.05;;;;;;;;;;6115501;23;20077;-59
2023/05/22 01:54:34;;;;;;;10.48;5.60;;;;;;;;;;6114989;23;20030;-58
2023/05/22 01:57:37;;;;;;;7.70;6.15;;;;;;;;;;6115122;23;20030;-49
2023/05/22 02:00:09;;;;;;;11.15;5.78;;;;;;;;;;6089093;23;20085;-48
2023/05/22 02:02:46;;;;;;;8.35;6.20;;;;;;;;;;6114462;23;20032;-49
2023/05/22 02:05:21;;;;;;;7.60;5.75;;;;;;;;;;6115067;23;20033;-52
2023/05/22 02:07:48;;;;;;;9.02;5.57;;;;;;;;;;6113439;23;20033;-49
2023/05/22 02:10:25;;;;;;;11.27;6.15;;;;;;;;;;6113177;23;20814;-48
2023/05/22 02:12:52;;;;;;;10.25;6.10;;;;;;;;;;6114635;23;20028;-51
2023/05/22 02:15:26;;;;;;;8.68;5.93;;;;;;;;;;6113142;23;20070;-59
2023/05/22 02:17:53;;;;;;;8.00;5.57;;;;;;;;;;6116047;23;20057;-58
2023/05/22 02:20:20;;;;;;;7.78;6.00;;;;;;;;;;6116878;23;20030;-56
2023/05/22 02:22:54;;;;;;;11.98;6.00;;;;;;;;;;6113127;23;20030;-59
2023/05/22 02:25:22;;;;;;;6.18;5.05;;;;;;;;;;6115111;23;20055;-65
2023/05/22 02:27:55;;;;;;;7.50;5.78;;;;;;;;;;6113806;23;20652;-49
2023/05/22 02:30:23;;;;;;;9.55;5.78;;;;;;;;;;6114839;23;20062;-54
2023/05/22 02:32:50;;;;;;;8.85;5.78;;;;;;;;;;6114857;23;20026;-51
2023/05/22 02:35:24;;;;;;;8.15;5.70;;;;;;;;;;6113996;23;20033;-49
2023/05/22 02:37:51;;;;;;;11.98;5.53;;;;;;;;;;6115855;23;20078;-50
2023/05/22 02:40:25;;;;;;;9.80;5.38;;;;;;;;;;6115461;23;20030;-51
2023/05/22 02:42:52;;;;;;;11.05;5.70;;;;;;;;;;6116577;23;20022;-51
2023/05/22 02:45:19;;;;;;;8.40;5.72;;;;;;;;;;6101177;23;20022;-51
2023/05/22 02:47:53;;;;;;;11.95;5.50;;;;;;;;;;6086325;23;20026;-53
2023/05/22 02:50:20;;;;;;;6.15;5.20;;;;;;;;;;6087344;23;20023;-54
2023/05/22 02:52:54;;;;;;;7.78;5.80;;;;;;;;;;6085726;23;20050;-52
2023/05/22 02:55:21;;;;;;;10.85;6.50;;;;;;;;;;6086715;23;20043;-47
2023/05/22 02:57:48;;;;;;;11.05;5.65;;;;;;;;;;6086559;23;20026;-64
2023/05/22 03:00:22;;;;;;;8.93;6.18;;;;;;;;;;6084207;23;20027;-64
2023/05/22 03:02:50;;;;;;;8.35;5.45;;;;;;;;;;6086699;23;20030;-64
2023/05/22 03:05:24;;;;;;;9.95;5.85;;;;;;;;;;6087213;23;20074;-65
2023/05/22 03:07:51;;;;;;;;;;;;;;;;;;6086248;23;20034;-65
2023/05/22 03:10:26;;;;;;;7.00;5.57;;;;;;;;;;6087737;23;19925;-64
2023/05/22 03:12:53;;;;;;;8.57;5.80;;;;;;;;;;6085565;23;20050;-49
2023/05/22 03:15:27;;;;;;;9.13;5.50;;;;;;;;;;6086467;23;20419;-55
2023/05/22 03:17:54;;;;;;;10.90;6.40;;;;;;;;;;6087685;23;20023;-52
2023/05/22 03:20:21;;;;;;;9.40;5.78;;;;;;;;;;6087661;23;20449;-50
2023/05/22 03:22:55;;;;;;;8.50;5.75;;;;;;;;;;6085742;23;20706;-50
2023/05/22 03:25:22;;;;;;;11.70;6.65;;;;;;;;;;6084716;23;20022;-60
2023/05/22 03:27:56;;;;;;;11.88;5.72;;;;;;;;;;6085893;23;20026;-60
2023/05/22 03:30:23;;;;;;;9.32;6.03;;;;;;;;;;6087439;23;20026;-61
2023/05/22 03:32:51;;;;;;;9.80;5.80;;;;;;;;;;6087079;23;20027;-60
2023/05/22 03:35:26;;;;;;;8.05;5.88;;;;;;;;;;6085180;23;20034;-61
2023/05/22 03:37:53;;;;;;;14.48;5.97;;;;;;;;;;6086284;23;20074;-60
2023/05/22 03:40:27;;;;;;;11.38;6.25;;;;;;;;;;6087000;23;20557;-59
2023/05/22 03:42:54;;;;;;;7.10;6.07;;;;;;;;;;6084748;23;20053;-61
2023/05/22 03:45:34;;;;;;;12.23;5.28;;;;;;;;;;6088304;23;20455;-60
2023/05/22 03:48:02;;;;;;;15.40;5.78;;;;;;;;;;6086734;23;20502;-60
2023/05/22 03:50:36;;;;;;;8.98;6.45;;;;;;;;;;6084350;23;20022;-60
2023/05/22 03:53:04;;;;;;;9.88;6.32;;;;;;;;;;6084740;23;20554;-60
2023/05/22 03:55:31;;;;;;;10.15;6.43;;;;;;;;;;6086098;23;20026;-60
2023/05/22 03:58:05;;;;;;;12.23;5.97;;;;;;;;;;6082775;23;20023;-48
2023/05/22 04:00:33;;;;;;;7.72;5.93;;;;;;;;;;6086848;23;20394;-47
2023/05/22 04:03:11;;;;;;;10.38;6.25;;;;;;;;;;6083744;23;20615;-49
2023/05/22 04:05:39;;;;;;;10.85;6.65;;;;;;;;;;6081569;23;20562;-49
2023/05/22 04:08:13;;;;;;;8.07;5.78;;;;;;;;;;6087261;23;20078;-50
2023/05/22 04:10:41;;;;;;;12.70;6.22;;;;;;;;;;6085560;23;20030;-53
2023/05/22 04:13:08;;;;;;;8.55;6.07;;;;;;;;;;6086810;23;20022;-52
2023/05/22 04:15:45;;;;;;;9.80;6.85;;;;;;;;;;6085790;23;20022;-51
2023/05/22 04:18:13;;;;;;;8.95;6.68;;;;;;;;;;6086059;23;20520;-53
2023/05/22 04:20:47;;;;;;;10.05;6.43;;;;;;;;;;6084870;23;20026;-49
2023/05/22 04:23:14;;;;;;;13.73;6.25;;;;;;;;;;6085379;23;20033;-51
2023/05/22 04:25:41;;;;;;;9.43;5.85;;;;;;;;;;6085849;23;20078;-50
2023/05/22 04:28:16;;;;;;;9.73;6.63;;;;;;;;;;6082522;23;20029;-48
2023/05/22 04:30:43;;;;;;;14.50;6.95;;;;;;;;;;6082526;23;20022;-48
2023/05/22 04:33:11;;;;;;;7.20;6.13;;;;;;;;;;6082755;23;20078;-50
2023/05/22 04:35:44;;;;;;;10.90;6.55;;;;;;;;;;6082225;23;20427;-65
2023/05/22 04:38:19;;;;;;;10.68;6.65;;;;;;;;;;6083325;23;20491;-48
2023/05/22 04:40:46;;;;;;;10.25;6.53;;;;;;;;;;6083924;23;20022;-51
2023/05/22 04:43:13;;;;;;;12.52;5.93;;;;;;;;;;6079567;23;20132;-51
2023/05/22 04:45:55;;;;;;;8.35;5.60;;;;;;;;;;6081811;23;20582;-52
2023/05/22 04:48:29;;;;;;;6.97;6.07;;;;;;;;;;6081348;23;20407;-49
2023/05/22 04:51:03;;;;;;;11.27;7.78;;;;;;;;;;6082310;23;20026;-50
2023/05/22 04:53:32;;;;;;;8.60;6.80;;;;;;;;;;6082127;23;20022;-49
2023/05/22 04:55:59;;;;;;;9.05;6.85;;;;;;;;;;6083040;23;20038;-48
2023/05/22 04:58:33;;;;;;;7.00;6.30;;;;;;;;;;6083377;23;20042;-64
2023/05/22 05:01:00;;;;;;;9.45;5.40;;;;;;;;;;6079477;23;20034;-64
2023/05/22 05:03:34;;;;;;;11.48;5.65;;;;;;;;;;6081862;23;20069;-64
2023/05/22 05:06:01;;;;;;;9.73;5.97;;;;;;;;;;6085743;23;20495;-64
2023/05/22 05:08:28;;;;;;;9.13;6.45;;;;;;;;;;6086864;23;20463;-64
2023/05/22 05:11:03;;;;;;;13.73;6.75;;;;;;;;;;6086772;23;20474;-64
2023/05/22 05:13:30;;;;;;;7.30;6.40;;;;;;;;;;6085920;23;20569;-62
2023/05/22 05:16:05;;;;;;;8.90;6.38;;;;;;;;;;6086396;23;20023;-49
2023/05/22 05:18:32;;;;;;;7.07;6.03;;;;;;;;;;6086164;23;20844;-50
2023/05/22 05:20:59;;;;;;;10.13;6.43;;;;;;;;;;6086578;23;20485;-53
2023/05/22 05:23:33;;;;;;;9.00;6.32;;;;;;;;;;6085941;23;20090;-50
2023/05/22 05:26:00;;;;;;;7.07;6.22;;;;;;;;;;6087038;23;20027;-51
2023/05/22 05:28:34;;;;;;;7.47;5.82;;;;;;;;;;6086166;23;20038;-53
2023/05/22 05:31:01;;;;;;;;;;;;;;;;;;6085742;23;20034;-61
2023/05/22 05:33:28;;;;;;;10.20;6.15;;;;;;;;;;6087553;23;19921;-61
2023/05/22 05:36:01;;;;;;;7.68;6.22;;;;;;;;;;6087712;23;20034;-61
2023/05/22 05:38:29;;;;;;;11.32;6.28;;;;;;;;;;6088105;23;20490;-61
2023/05/22 05:40:56;;;;;;;8.10;6.28;;;;;;;;;;6088368;23;20056;-59
2023/05/22 05:43:29;;;;;;;11.68;6.55;;;;;;;;;;6087519;23;20093;-59
2023/05/22 05:46:04;;;;;;;10.68;7.15;;;;;;;;;;6106569;23;20022;-59
2023/05/22 05:48:39;;;;;;;11.52;6.50;;;;;;;;;;6116863;23;20085;-59
2023/05/22 05:51:06;;;;;;;8.05;6.88;;;;;;;;;;6116926;23;20109;-59
2023/05/22 05:53:35;;;;;;;10.65;5.88;;;;;;;;;;6117849;23;20056;-59
2023/05/22 05:56:10;;;;;;;6.57;5.20;;;;;;;;;;6115892;23;20026;-59
2023/05/22 05:58:37;;;;;;;7.45;5.68;;;;;;;;;;6117075;23;20585;-54
2023/05/22 06:01:11;;;;;;;6.72;5.95;;;;;;;;;;6117493;23;20032;-55
2023/05/22 06:03:38;;;;;;;11.60;6.65;;;;;;;;;;6116594;23;20057;-54
2023/05/22 06:06:06;;;;;;;7.63;5.07;;;;;;;;;;6117036;23;20033;-52
2023/05/22 06:08:41;;;;;;;6.88;6.03;;;;;;;;;;6116887;23;20450;-53
2023/05/22 06:11:08;;;;;;;7.68;6.25;;;;;;;;;;6116512;23;20029;-51
2023/05/22 06:13:42;;;;;;;8.93;6.03;;;;;;;;;;6115963;23;20034;-55
2023/05/22 06:16:09;;;;;;;11.65;5.90;;;;;;;;;;6116285;23;20022;-55
2023/05/22 06:18:36;;;;;;;7.22;6.07;;;;;;;;;;6116574;23;20021;-56
2023/05/22 06:21:10;;;;;;;8.70;6.13;;;;;;;;;;6117082;23;20895;-54
2023/05/22 06:23:37;;;;;;;6.95;5.85;;;;;;;;;;6117303;23;20093;-55
2023/05/22 06:26:12;;;;;;;9.65;5.80;;;;;;;;;;6116234;23;20026;-54
2023/05/22 06:28:39;;;;;;;;;;;;;;;;;;6117616;23;20034;-57
2023/05/22 06:31:08;;;;;;;6.40;5.80;;;;;;;;;;6117034;23;20295;-58
2023/05/22 06:33:42;;;;;;;9.52;5.93;;;;;;;;;;6117129;23;20076;-59
2023/05/22 06:36:11;;;;;;;;;;;;;;;;;;6117497;23;20057;-58
2023/05/22 06:38:45;;;;;;;8.55;5.93;;;;;;;;;;6116957;23;19988;-49
2023/05/22 06:41:19;;;;;;;10.13;5.80;;;;;;;;;;6115045;23;20120;-54
2023/05/22 06:43:47;;;;;;;6.88;5.50;;;;;;;;;;6116888;23;20062;-57
2023/05/22 06:46:14;;;;;;;8.05;4.82;;;;;;;;;;6095975;23;20030;-56
2023/05/22 06:48:58;;;;;;;11.70;5.47;;;;;;;;;;6086847;23;20025;-55
2023/05/22 06:51:26;;;;;;;8.85;4.32;;;;;;;;;;6088529;23;20766;-55
2023/05/22 06:54:02;;;;;;;10.65;5.53;;;;;;;;;;6086611;23;20089;-56
2023/05/22 06:56:29;;;;;;;10.13;4.95;;;;;;;;;;6088090;23;20027;-50
2023/05/22 06:58:57;;;;;;;10.73;5.82;;;;;;;;;;6086821;23;20061;-53
2023/05/22 07:01:32;;;;;;;8.20;4.85;;;;;;;;;;6084537;23;20057;-51
2023/05/22 07:04:00;;;;;;;6.43;4.47;;;;;;;;;;6086058;23;20038;-53
2023/05/22 07:06:38;;;;;;;8.27;4.93;;;;;;;;;;6088884;23;20255;-58
2023/05/22 07:09:05;;;;;;;6.93;4.80;;;;;;;;;;6087405;23;20386;-55
2023/05/22 07:11:32;;;;;;;8.07;5.15;;;;;;;;;;6087865;23;20022;-54
2023/05/22 07:14:07;;;;;;;7.15;4.70;;;;;;;;;;6085691;23;20423;-55
2023/05/22 07:16:35;;;;;;;;;;;;;;;;;;6087870;23;20030;-52
2023/05/22 07:19:10;;;;;;;8.98;4.97;;;;;;;;;;6086599;23;19929;-56
2023/05/22 07:21:38;;;;;;;8.70;5.00;;;;;;;;;;6087927;23;20438;-52
2023/05/22 07:24:08;;;;;;;8.30;5.00;;;;;;;;;;6087550;23;20026;-51
2023/05/22 07:26:45;;;;;;;11.93;5.13;;;;;;;;;;6086997;23;20018;-52
2023/05/22 07:29:13;;;;;;;7.25;4.88;;;;;;;;;;6086221;23;20026;-54
2023/05/22 07:31:49;;;;;;;5.22;4.55;;;;;;;;;;6087155;23;20037;-50
2023/05/22 07:34:16;;;;;;;6.20;4.35;;;;;;;;;;6085708;23;20026;-50
2023/05/22 07:36:43;;;;;;;7.53;4.43;;;;;;;;;;6087794;23;20081;-64
2023/05/22 07:39:18;;;;;;;6.50;4.30;;;;;;;;;;6086886;23;20085;-62
2023/05/22 07:41:49;;;;;;;5.88;4.63;;;;;;;;;;6087797;23;20513;-63
2023/05/22 07:44:25;;;;;;;6.32;4.28;;;;;;;;;;6087717;23;20030;-62
2023/05/22 07:46:58;;;;;;;10.88;4.82;;;;;;;;;;6112708;23;20085;-62
2023/05/22 07:49:33;;;;;;;4.97;3.97;;;;;;;;;;6104252;23;20030;-63
2023/05/22 07:52:07;;;;;;;8.18;4.50;;;;;;;;;;6116845;23;20026;-56
2023/05/22 07:54:34;;;;;;;6.82;4.40;;;;;;;;;;6115390;23;20037;-56
2023/05/22 07:57:02;;;;;;;7.03;4.32;;;;;;;;;;6115456;23;20026;-54
2023/05/22 07:59:36;;;;;;;4.85;4.20;;;;;;;;;;6115296;23;20408;-57
2023/05/22 08:02:03;;;;;;;5.15;4.25;;;;;;;;;;6116062;23;20022;-58
2023/05/22 08:04:38;;;;;;;6.57;4.15;;;;;;;;;;6116413;23;20073;-54
2023/05/22 08:07:06;;;;;;;6.22;4.68;;;;;;;;;;6116689;23;20026;-53
2023/05/22 08:09:33;;;;;;;;;;;;;;;;;;6116254;23;20208;-47
2023/05/22 08:12:07;;;;;;;9.60;4.32;;;;;;;;;;6116319;23;20324;-51
2023/05/22 08:14:34;;;;;;;5.95;3.97;;;;;;;;;;6116346;23;20026;-50
2023/05/22 08:17:08;;;;;;;5.85;4.45;;;;;;;;;;6114659;23;20030;-50
2023/05/22 08:19:35;;;;;;;5.30;4.03;;;;;;;;;;6114667;23;20029;-48
2023/05/22 08:22:03;;;;;;;6.80;4.00;;;;;;;;;;6116989;23;20018;-50
2023/05/22 08:24:37;;;;;;;6.35;4.20;;;;;;;;;;6117177;23;20025;-50
2023/05/22 08:27:04;;;;;;;6.25;4.03;;;;;;;;;;6116474;23;20026;-51
2023/05/22 08:29:31;;;;;;;7.68;4.03;;;;;;;;;;6114942;23;20617;-50
2023/05/22 08:32:06;;;;;;;6.20;4.07;;;;;;;;;;6112804;23;20565;-48
2023/05/22 08:34:34;;;;;;;6.97;4.20;;;;;;;;;;6114246;23;20026;-60
2023/05/22 08:37:08;;;;;;;11.57;4.25;;;;;;;;;;6115854;23;20025;-57
2023/05/22 08:39:35;;;;;;;;;;;;;;;;;;6115770;23;20026;-58
2023/05/22 08:42:09;;;;;;;4.50;4.07;;;;;;;;;;6113319;23;19984;-58
2023/05/22 08:44:36;;;;;;;;;;;;;;;;;;6115222;23;20489;-58
2023/05/22 08:47:17;;;;;;;8.77;4.30;;;;;;;;;;6085774;23;20341;-57
2023/05/22 08:49:46;;;;;;;6.07;4.07;;;;;;;;;;6086359;23;20033;-55
2023/05/22 08:52:22;;;;;;;4.97;4.15;;;;;;;;;;6086330;23;20077;-55
2023/05/22 08:54:56;;;;;;;6.72;4.03;;;;;;;;;;6086521;23;20410;-56
2023/05/22 08:57:23;;;;;;;;;;;;;;;;;;6085721;23;20086;-56
2023/05/22 08:59:51;;;;;;;6.50;4.05;;;;;;;;;;6086719;23;19959;-59
2023/05/22 09:02:25;;;;;;;6.32;3.88;;;;;;;;;;6084265;23;20034;-59
2023/05/22 09:04:52;;;;;;;7.00;4.55;;;;;;;;;;6086114;23;20018;-58
2023/05/22 09:07:28;;;;;;;7.18;4.40;;;;;;;;;;6088016;23;20030;-57
2023/05/22 09:09:56;;;;;;;4.95;4.25;;;;;;;;;;6088358;23;20060;-58
2023/05/22 09:12:25;;;;;;;6.32;4.40;;;;;;;;;;6085437;23;20030;-59
2023/05/22 09:15:20;;;;;;;8.32;4.25;;;;;;;;;;6086638;23;20093;-58
2023/05/22 09:17:47;;;;;;;5.85;4.10;;;;;;;;;;6087665;23;20556;-58
2023/05/22 09:20:21;;;;;;;6.22;4.03;;;;;;;;;;6087624;23;20026;-58
2023/05/22 09:22:48;;;;;;;6.78;3.90;;;;;;;;;;6087542;23;20498;-57
2023/05/22 09:25:19;;;;;;;4.00;3.58;;;;;;;;;;6087926;23;20034;-58
2023/05/22 09:27:53;;;;;;;5.85;4.30;;;;;;;;;;6089520;23;20081;-56
2023/05/22 09:30:20;;;;;;;;;;;;;;;;;;6087841;23;20431;-52
2023/05/22 09:32:55;;;;;;;6.05;3.88;;;;;;;;;;6086879;23;19925;-59
2023/05/22 09:35:26;;;;;;;8.20;4.47;;;;;;;;;;6088822;23;20030;-58
2023/05/22 09:38:08;;;;;;;4.35;3.92;;;;;;;;;;6086312;23;20082;-58
2023/05/22 09:40:37;;;;;;;5.65;3.70;;;;;;;;;;6088127;23;20023;-58
2023/05/22 09:43:14;;;;;;;5.97;4.25;;;;;;;;;;6088454;23;20026;-58
2023/05/22 09:45:41;;;;;;;8.18;4.30;;;;;;;;;;6087843;23;20034;-58
2023/05/22 09:48:23;;;;;;;9.13;3.97;;;;;;;;;;6087085;23;20030;-66
2023/05/22 09:50:52;;;;;;;5.30;4.10;;;;;;;;;;6088173;23;20056;-67
2023/05/22 09:53:29;;;;;;;4.32;3.60;;;;;;;;;;6086671;23;20101;-67
2023/05/22 09:55:57;;;;;;;9.65;4.30;;;;;;;;;;6088513;23;20026;-58
2023/05/22 09:58:26;;;;;;;5.70;4.07;;;;;;;;;;6088403;23;20088;-54
2023/05/22 10:01:01;;;;;;;11.52;4.53;;;;;;;;;;6088580;23;20077;-57
2023/05/22 10:03:35;;;;;;;13.25;4.10;;;;;;;;;;6086537;23;20077;-58
2023/05/22 10:06:11;;;;;;;7.70;3.90;;;;;;;;;;6087294;23;20033;-58
2023/05/22 10:08:50;;;;;;;10.75;4.40;;;;;;;;;;6086929;23;20427;-58
2023/05/22 10:11:17;;;;;;;6.35;4.00;;;;;;;;;;6088124;23;20144;-58
2023/05/22 10:13:52;;;;;;;5.47;3.70;;;;;;;;;;6087528;23;20034;-56
2023/05/22 10:16:26;;;;;;;4.18;3.78;;;;;;;;;;6088446;23;20030;-54
2023/05/22 10:19:00;;;;;;;4.43;3.33;;;;;;;;;;6086728;23;20026;-53
2023/05/22 10:21:35;;;;;;;5.65;4.05;;;;;;;;;;6087858;23;20065;-53
2023/05/22 10:24:03;;;;;;;5.35;3.75;;;;;;;;;;6085893;23;20367;-54
2023/05/22 10:26:38;;;;;;;6.10;3.88;;;;;;;;;;6087434;23;20514;-59
2023/05/22 10:29:25;;;;;;;7.07;3.70;;;;;;;;;;6087412;23;20026;-59
2023/05/22 10:32:14;;;;;;;7.03;3.60;;;;;;;;;;6085216;23;20140;-58
2023/05/22 10:34:47;;;;;;;9.00;4.35;;;;;;;;;;6087604;23;20089;-60
2023/05/22 10:37:42;;;;;;;8.10;3.83;;;;;;;;;;6087532;23;20614;-59
2023/05/22 10:40:11;;;;;;;8.38;3.97;;;;;;;;;;6088279;23;20023;-59
2023/05/22 10:42:45;;;;;;;8.13;3.88;;;;;;;;;;6087913;23;20033;-61
2023/05/22 10:45:32;;;;;;;13.75;4.07;;;;;;;;;;6086664;23;20557;-58
2023/05/22 10:48:13;;;;;;;8.70;3.47;;;;;;;;;;6086988;23;20030;-58
2023/05/22 10:50:51;;;;;;;8.68;3.40;;;;;;;;;;6086614;23;20023;-58
2023/05/22 10:53:27;;;;;;;12.15;3.65;;;;;;;;;;6086867;23;20037;-63
2023/05/22 10:56:01;;;;;;;6.50;3.35;;;;;;;;;;6087104;23;20098;-52
2023/05/22 10:58:36;;;;;;;7.85;4.07;;;;;;;;;;6088155;23;20490;-56
2023/05/22 11:01:12;;;;;;;7.55;4.07;;;;;;;;;;6087536;23;20109;-58
2023/05/22 11:04:12;;;;;;;4.20;3.47;;;;;;;;;;6085145;23;20026;-58
2023/05/22 11:06:47;;;;;;;8.00;4.00;;;;;;;;;;6087464;23;20377;-53
2023/05/22 11:09:28;;;;;;;9.13;3.83;;;;;;;;;;6087492;23;20027;-57
2023/05/22 11:12:15;;;;;;;7.03;4.07;;;;;;;;;;6088036;23;20022;-57
2023/05/22 11:14:53;;;;;;;8.32;3.95;;;;;;;;;;6087005;23;20513;-53
2023/05/22 11:17:21;;;;;;;7.72;3.75;;;;;;;;;;6087705;23;20549;-54
2023/05/22 11:20:00;;;;;;;7.78;3.55;;;;;;;;;;6086357;23;20061;-54
2023/05/22 11:22:40;;;;;;;10.73;4.18;;;;;;;;;;6087736;23;20030;-57
2023/05/22 11:25:17;;;;;;;21.45;4.53;;;;;;;;;;6087789;23;20062;-50
2023/05/22 11:27:46;;;;;;;9.13;4.50;;;;;;;;;;6085097;23;20442;-51
2023/05/22 11:30:20;;;;;;;8.75;4.03;;;;;;;;;;6086788;23;20026;-51
2023/05/22 11:32:47;;;;;;;11.25;3.63;;;;;;;;;;6086864;23;20019;-51
2023/05/22 11:35:15;;;;;;;;;;;;;;;;;;6085403;23;20026;-54
2023/05/22 11:37:51;;;;;;;6.10;4.13;;;;;;;;;;6086977;23;19917;-51
2023/05/22 11:40:19;;;;;;;7.95;3.60;;;;;;;;;;6087776;23;20106;-64
2023/05/22 11:42:54;;;;;;;5.47;4.20;;;;;;;;;;6084852;23;20394;-63
2023/05/22 11:45:21;;;;;;;9.43;4.10;;;;;;;;;;6087519;23;20085;-62
2023/05/22 11:47:55;;;;;;;6.18;4.00;;;;;;;;;;6086604;23;20371;-62
2023/05/22 11:50:22;;;;;;;8.30;4.13;;;;;;;;;;6086783;23;20026;-62
2023/05/22 11:53:09;;;;;;;9.68;3.97;;;;;;;;;;6084484;23;20031;-52
2023/05/22 11:55:44;;;;;;;9.68;4.10;;;;;;;;;;6087429;23;20026;-50
2023/05/22 11:58:11;;;;;;;7.82;4.38;;;;;;;;;;6086627;23;20034;-48
2023/05/22 12:00:45;;;;;;;10.00;3.75;;;;;;;;;;6085790;23;20059;-49
2023/05/22 12:03:12;;;;;;;8.40;4.40;;;;;;;;;;6084922;23;20502;-49
2023/05/22 12:05:40;;;;;;;7.40;4.50;;;;;;;;;;6085013;23;20561;-52
2023/05/22 12:08:14;;;;;;;8.05;4.38;;;;;;;;;;6086645;23;20053;-65
2023/05/22 12:10:56;;;;;;;6.60;4.13;;;;;;;;;;6088349;23;20026;-64
2023/05/22 12:13:36;;;;;;;6.53;4.10;;;;;;;;;;6086556;23;20022;-65
2023/05/22 12:16:17;;;;;;;7.15;4.43;;;;;;;;;;6086250;23;20026;-64
2023/05/22 12:18:54;;;;;;;8.85;4.05;;;;;;;;;;6086270;23;20026;-64
2023/05/22 12:21:21;;;;;;;6.28;3.67;;;;;;;;;;6085274;23;20101;-53
2023/05/22 12:23:49;;;;;;;6.43;4.07;;;;;;;;;;6086958;23;20037;-54
2023/05/22 12:26:23;;;;;;;5.68;4.03;;;;;;;;;;6086815;23;20073;-54
2023/05/22 12:28:54;;;;;;;7.65;4.57;;;;;;;;;;6086367;23;20078;-58
2023/05/22 12:31:34;;;;;;;6.55;4.18;;;;;;;;;;6083831;23;20027;-56
2023/05/22 12:34:03;;;;;;;6.90;4.60;;;;;;;;;;6085855;23;20053;-58
2023/05/22 12:36:41;;;;;;;6.00;4.45;;;;;;;;;;6086479;23;20360;-63
2023/05/22 12:39:09;;;;;;;4.57;4.00;;;;;;;;;;6086281;23;20053;-63
2023/05/22 12:41:43;;;;;;;5.20;4.15;;;;;;;;;;6086639;23;20089;-63
2023/05/22 12:44:11;;;;;;;6.82;4.03;;;;;;;;;;6084376;23;20129;-63
2023/05/22 12:46:58;;;;;;;6.00;4.45;;;;;;;;;;6088884;23;20077;-48
2023/05/22 12:49:32;;;;;;;5.07;4.05;;;;;;;;;;6087891;23;20026;-51
2023/05/22 12:52:06;;;;;;;6.25;4.43;;;;;;;;;;6086129;23;20074;-55
2023/05/22 12:54:40;;;;;;;5.90;3.97;;;;;;;;;;6085953;23;20386;-53
2023/05/22 12:57:15;;;;;;;6.38;4.72;;;;;;;;;;6086716;23;20027;-56
2023/05/22 12:59:49;;;;;;;5.10;4.28;;;;;;;;;;6085519;23;20030;-53
2023/05/22 13:02:24;;;;;;;8.18;4.88;;;;;;;;;;6087079;23;20026;-53
2023/05/22 13:04:51;;;;;;;23.75;4.72;;;;;;;;;;6087200;23;20033;-54
2023/05/22 13:07:18;;;;;;;5.32;4.00;;;;;;;;;;6086622;23;20037;-52
2023/05/22 13:09:52;;;;;;;6.18;4.30;;;;;;;;;;6085734;23;20093;-55
2023/05/22 13:12:19;;;;;;;;;;;;;;;;;;6087476;23;20085;-53
2023/05/22 13:14:53;;;;;;;7.18;4.20;;;;;;;;;;6084274;23;19928;-56
2023/05/22 13:17:20;;;;;;;6.10;4.38;;;;;;;;;;6086152;23;20069;-58
2023/05/22 13:19:47;;;;;;;7.13;4.20;;;;;;;;;;6086647;23;20040;-63
2023/05/22 13:22:21;;;;;;;6.88;4.30;;;;;;;;;;6085076;23;20018;-64
2023/05/22 13:24:49;;;;;;;6.18;4.55;;;;;;;;;;6085908;23;20031;-64
2023/05/22 13:27:23;;;;;;;9.32;4.63;;;;;;;;;;6087056;23;20042;-64
2023/05/22 13:29:50;;;;;;;7.47;4.95;;;;;;;;;;6085374;23;20085;-63
2023/05/22 13:32:18;;;;;;;6.63;4.22;;;;;;;;;;6085041;23;20093;-64
2023/05/22 13:34:52;;;;;;;4.97;4.05;;;;;;;;;;6087321;23;20023;-63
2023/05/22 13:37:20;;;;;;;10.68;4.60;;;;;;;;;;6086801;23;20092;-63
2023/05/22 13:39:54;;;;;;;6.13;4.30;;;;;;;;;;6086941;23;20062;-63
2023/05/22 13:42:21;;;;;;;7.68;4.55;;;;;;;;;;6085539;23;20026;-63
2023/05/22 13:44:49;;;;;;;8.90;5.18;;;;;;;;;;6085966;23;20026;-51
2023/05/22 13:47:30;;;;;;;8.38;4.75;;;;;;;;;;6087654;23;20030;-64
2023/05/22 13:49:57;;;;;;;14.05;4.93;;;;;;;;;;6085635;23;20394;-63
2023/05/22 13:52:31;;;;;;;8.02;4.55;;;;;;;;;;6087613;23;20026;-64
2023/05/22 13:54:59;;;;;;;9.10;4.97;;;;;;;;;;6087924;23;20512;-63
2023/05/22 13:57:26;;;;;;;7.63;5.22;;;;;;;;;;6087509;23;20073;-63
2023/05/22 14:00:00;;;;;;;5.65;4.78;;;;;;;;;;6087619;23;20479;-63
2023/05/22 14:02:27;;;;;;;;;;;;;;;;;;6089063;23;20026;-63
2023/05/22 14:05:01;;;;;;;6.93;5.13;;;;;;;;;;6088571;23;19918;-63
2023/05/22 14:07:28;;;;;;;9.52;5.35;;;;;;;;;;6086121;23;20077;-62
2023/05/22 14:09:55;;;;;;;5.80;4.90;;;;;;;;;;6087396;23;20576;-62
2023/05/22 14:12:29;;;;;;;12.75;5.13;;;;;;;;;;6087532;23;20077;-64
2023/05/22 14:14:56;;;;;;;;;;;;;;;;;;6088275;23;20026;-63
2023/05/22 14:17:30;;;;;;;5.50;4.28;;;;;;;;;;6088018;23;19968;-55
2023/05/22 14:19:58;;;;;;;;;;;;;;;;;;6088291;23;20320;-55
2023/05/22 14:22:25;;;;;;;8.70;4.85;;;;;;;;;;6088193;23;20437;-54
2023/05/22 14:25:14;;;;;;;;;;;;;;;;;;6086762;23;20105;-54
2023/05/22 14:27:41;;;;;;;11.02;4.95;;;;;;;;;;6087387;23;20333;-53
2023/05/22 14:30:15;;;;;;;8.13;4.53;;;;;;;;;;6087227;23;20113;-55
2023/05/22 14:32:42;;;;;;;9.82;4.50;;;;;;;;;;6087381;23;20381;-62
2023/05/22 14:35:16;;;;;;;8.20;4.60;;;;;;;;;;6086874;23;20033;-64
2023/05/22 14:37:43;;;;;;;;;;;;;;;;;;6089677;23;20405;-63
2023/05/22 14:40:10;;;;;;;9.10;5.40;;;;;;;;;;6086981;23;19921;-63
2023/05/22 14:42:44;;;;;;;6.22;4.70;;;;;;;;;;6087131;23;20034;-49
2023/05/22 14:45:12;;;;;;;11.98;5.13;;;;;;;;;;6087705;23;20089;-54
2023/05/22 14:47:53;;;;;;;12.52;5.30;;;;;;;;;;6114875;23;20030;-55
2023/05/22 14:50:27;;;;;;;8.68;4.63;;;;;;;;;;6116528;23;20060;-57
2023/05/22 14:53:01;;;;;;;7.63;4.78;;;;;;;;;;6117441;23;20026;-52
2023/05/22 14:55:28;;;;;;;18.83;4.85;;;;;;;;;;6115935;23;20097;-57
2023/05/22 14:58:02;;;;;;;5.55;4.30;;;;;;;;;;6116249;23;20397;-53
2023/05/22 15:00:29;;;;;;;8.38;4.32;;;;;;;;;;6117004;23;20057;-47
2023/05/22 15:02:57;;;;;;;7.25;4.40;;;;;;;;;;6114181;23;20498;-53
2023/05/22 15:05:31;;;;;;;5.85;3.85;;;;;;;;;;6113019;23;20025;-55
2023/05/22 15:07:59;;;;;;;4.53;3.95;;;;;;;;;;6117806;23;20022;-51
2023/05/22 15:10:26;;;;;;;7.28;4.03;;;;;;;;;;6115825;23;20034;-50
2023/05/22 15:13:00;;;;;;;5.93;4.00;;;;;;;;;;6113583;23;20029;-58
2023/05/22 15:15:27;;;;;;;10.65;4.20;;;;;;;;;;6116286;23;20029;-58